Time;durP1;ratioP1;P1;durP2;ratioP2;P2;SDS_P1;SDS_P2;PMS_P1;PMS_P2;Temp;Humidity;BMP_temperature;BMP_pressure;BME280_temperature;BME280_humidity;BME280_pressure;Samples;Min_cycle;Max_cycle;Signal;HPM_P1;HPM_P2
2022/12/18 00:01:26;;;;;;;166.55;38.35;;;;;;;-7.33;100.00;102764.19;5091356;28;20119;-46
2022/12/18 00:03:53;;;;;;;164.63;42.20;;;;;;;-7.35;100.00;102765.59;5094373;28;20035;-45
2022/12/18 00:06:19;;;;;;;309.48;116.88;;;;;;;-7.59;100.00;102758.22;5095933;28;20529;-42
2022/12/18 00:08:47;;;;;;;126.30;33.92;;;;;;;-7.49;100.00;102754.66;5094814;28;20024;-44
2022/12/18 00:11:17;;;;;;;132.88;32.38;;;;;;;-7.50;100.00;102757.84;5095752;28;20028;-44
2022/12/18 00:13:43;;;;;;;154.65;34.03;;;;;;;-7.50;100.00;102761.94;5095238;28;20115;-44
2022/12/18 00:16:11;;;;;;;305.48;116.57;;;;;;;-7.62;100.00;102754.63;5094815;28;20112;-44
2022/12/18 00:18:37;;;;;;;143.43;35.78;;;;;;;-7.52;100.00;102740.81;5095449;28;20028;-46
2022/12/18 00:21:05;;;;;;;150.88;37.47;;;;;;;-7.51;100.00;102727.59;5095653;28;20047;-44
2022/12/18 00:23:31;;;;;;;304.58;118.90;;;;;;;-7.57;100.00;102724.28;5094684;28;20027;-44
2022/12/18 00:26:00;;;;;;;152.88;35.50;;;;;;;-7.49;100.00;102729.63;5095304;28;20036;-46
2022/12/18 00:28:26;;;;;;;164.55;39.30;;;;;;;-7.48;100.00;102728.00;5095298;28;20482;-42
2022/12/18 00:31:10;;;;;;;149.25;35.28;;;;;;;-7.46;100.00;102729.13;5094448;28;20036;-43
2022/12/18 00:33:36;;;;;;;143.98;35.42;;;;;;;-7.49;100.00;102724.59;5095062;28;20027;-46
2022/12/18 00:36:11;;;;;;;257.23;103.70;;;;;;;-7.78;100.00;102719.13;5094540;28;20387;-42
2022/12/18 00:38:37;;;;;;;272.38;106.82;;;;;;;-7.69;100.00;102714.44;5094791;28;20085;-43
2022/12/18 00:41:03;;;;;;;133.50;36.25;;;;;;;-7.64;100.00;102725.97;5095382;28;20103;-44
2022/12/18 00:43:29;;;;;;;276.08;109.20;;;;;;;-7.74;100.00;102717.03;5094560;28;20111;-45
2022/12/18 00:45:55;;;;;;;124.10;32.90;;;;;;;-7.66;100.00;102713.94;5094792;28;20032;-43
2022/12/18 00:48:20;;;;;;;267.33;107.80;;;;;;;-7.73;100.00;102709.72;5095101;28;20133;-45
2022/12/18 00:50:48;;;;;;;269.05;109.00;;;;;;;-7.73;100.00;102721.31;5094065;28;20074;-42
2022/12/18 00:53:13;;;;;;;134.43;34.63;;;;;;;-7.69;100.00;102713.56;5094938;28;20024;-43
2022/12/18 00:55:39;;;;;;;142.32;34.47;;;;;;;-7.68;100.00;102711.25;5094719;28;20116;-43
2022/12/18 00:58:05;;;;;;;252.80;103.07;;;;;;;-7.75;100.00;102698.59;5094220;28;20028;-43
2022/12/18 01:00:30;;;;;;;125.25;32.53;;;;;;;-7.67;100.00;102707.13;5094615;28;20479;-42
2022/12/18 01:02:55;;;;;;;248.95;103.45;;;;;;;-7.75;100.00;102716.13;5094596;28;20051;-46
2022/12/18 01:05:21;;;;;;;126.35;32.13;;;;;;;-7.70;100.00;102730.16;5093963;28;20111;-43
2022/12/18 01:07:47;;;;;;;128.98;32.65;;;;;;;-7.71;100.00;102725.84;5094168;28;20376;-42
2022/12/18 01:10:13;;;;;;;129.27;31.42;;;;;;;-7.72;100.00;102731.56;5094830;28;20016;-43
2022/12/18 01:12:38;;;;;;;141.48;35.55;;;;;;;-7.71;100.00;102744.97;5093703;28;20050;-45
2022/12/18 01:15:06;;;;;;;228.30;97.10;;;;;;;-7.86;100.00;102748.81;5093496;28;20028;-43
2022/12/18 01:17:32;;;;;;;223.95;98.05;;;;;;;-7.82;100.00;102744.44;5094498;28;20096;-42
2022/12/18 01:19:57;;;;;;;111.22;30.98;;;;;;;-7.75;100.00;102743.66;5093662;28;20024;-46
2022/12/18 01:22:23;;;;;;;215.77;95.22;;;;;;;-7.85;100.00;102745.63;5094290;28;20031;-42
2022/12/18 01:24:48;;;;;;;109.35;31.60;;;;;;;-7.79;100.00;102753.97;5093811;28;20364;-42
2022/12/18 01:27:13;;;;;;;102.38;29.92;;;;;;;-7.81;100.00;102743.75;5093629;28;20027;-45
2022/12/18 01:29:39;;;;;;;113.80;33.78;;;;;;;-7.82;100.00;102731.94;5093820;28;20028;-46
2022/12/18 01:32:04;;;;;;;115.70;31.13;;;;;;;-7.78;100.00;102745.78;5094442;28;20039;-43
2022/12/18 01:34:29;;;;;;;206.85;92.53;;;;;;;-7.80;100.00;102739.66;5093533;28;20580;-42
2022/12/18 01:36:55;;;;;;;208.20;94.93;;;;;;;-7.83;100.00;102735.13;5093642;28;20024;-42
2022/12/18 01:39:20;;;;;;;110.68;31.80;;;;;;;-7.76;100.00;102731.84;5093275;28;20416;-42
2022/12/18 01:42:01;;;;;;;116.63;31.88;;;;;;;-7.77;100.00;102723.44;5093909;28;20028;-44
2022/12/18 01:44:57;;;;;;;197.43;89.57;;;;;;;-7.86;100.00;102728.81;5093892;28;20061;-44
2022/12/18 01:47:30;;;;;;;106.35;29.23;;;;;;;-7.84;100.00;102725.81;5093151;28;20036;-44
2022/12/18 01:49:57;;;;;;;103.95;30.77;;;;;;;-7.87;100.00;102717.00;5094030;28;20026;-43
2022/12/18 01:52:24;;;;;;;;;;;;;;;-7.86;100.00;102724.72;5094160;28;20040;-45
2022/12/18 01:54:51;;;;;;;110.05;29.48;;;;;;;-7.86;100.00;102734.72;5092719;28;20182;-43
2022/12/18 01:57:16;;;;;;;186.07;89.32;;;;;;;-7.92;100.00;102728.00;5093726;28;20051;-45
2022/12/18 01:59:45;;;;;;;182.07;86.93;;;;;;;-7.92;100.00;102723.00;5093129;28;20402;-44
2022/12/18 02:02:11;;;;;;;181.02;90.57;;;;;;;-7.95;100.00;102741.03;5092846;28;20134;-45
2022/12/18 02:04:37;;;;;;;195.15;88.28;;;;;;;-7.89;100.00;102725.91;5093390;28;20081;-47
2022/12/18 02:07:20;;;;;;;106.35;30.55;;;;;;;-7.86;100.00;102724.72;5093635;28;20418;-44
2022/12/18 02:10:27;;;;;;;83.35;26.85;;;;;;;-7.87;100.00;102722.91;5092489;28;20085;-44
2022/12/18 02:13:13;;;;;;;91.35;27.20;;;;;;;-7.91;100.00;102714.78;5011052;28;20449;-43
2022/12/18 02:16:02;;;;;;;102.78;29.77;;;;;;;-7.95;100.00;102714.38;5086569;28;20137;-43
2022/12/18 02:18:34;;;;;;;99.20;29.23;;;;;;;-7.97;100.00;102710.75;5093367;28;20024;-43
2022/12/18 02:21:11;;;;;;;103.85;31.20;;;;;;;-8.00;100.00;102709.47;5093560;28;20024;-44
2022/12/18 02:23:56;;;;;;;97.60;28.40;;;;;;;-8.06;100.00;102712.03;5092435;28;20039;-46
2022/12/18 02:26:35;;;;;;;173.25;83.00;;;;;;;-8.14;100.00;102710.13;5092757;28;20487;-46
2022/12/18 02:29:39;;;;;;;100.20;31.35;;;;;;;-8.09;100.00;102719.16;5092406;28;20107;-42
2022/12/18 02:32:11;;;;;;;114.20;32.38;;;;;;;-8.09;100.00;102719.16;5092210;28;20122;-45
2022/12/18 02:34:38;;;;;;;97.78;29.25;;;;;;;-8.08;100.00;102720.03;5092832;28;20099;-43
2022/12/18 02:37:09;;;;;;;90.47;28.20;;;;;;;-8.08;100.00;102720.94;5092342;28;20024;-42
2022/12/18 02:39:38;;;;;;;83.35;27.38;;;;;;;-8.08;100.00;102720.94;5092939;28;20028;-43
2022/12/18 02:42:07;;;;;;;91.78;27.98;;;;;;;-8.08;100.00;102718.44;5093099;28;20399;-42
2022/12/18 02:44:43;;;;;;;166.05;80.20;;;;;;;-8.15;100.00;102708.31;5092103;28;20028;-43
2022/12/18 02:47:11;;;;;;;88.20;29.33;;;;;;;-8.09;100.00;102704.13;5092931;28;20032;-45
2022/12/18 02:50:12;;;;;;;99.95;26.05;;;;;;;-8.10;100.00;102705.72;5092507;28;20048;-43
2022/12/18 02:53:02;;;;;;;88.57;27.90;;;;;;;-8.12;100.00;102688.69;5091956;28;20032;-44
2022/12/18 02:56:01;;;;;;;109.82;30.55;;;;;;;-8.15;100.00;102695.78;5092912;28;20495;-46
2022/12/18 02:58:47;;;;;;;89.53;27.63;;;;;;;-8.16;100.00;102692.41;5092262;28;20028;-44
2022/12/18 03:01:34;;;;;;;156.13;74.32;;;;;;;-8.21;100.00;102698.38;5092039;28;20044;-46
2022/12/18 03:04:11;;;;;;;77.13;25.50;;;;;;;-8.18;100.00;102697.91;5092152;28;20035;-42
2022/12/18 03:06:46;;;;;;;147.43;75.28;;;;;;;-8.28;100.00;102691.63;5092404;28;20028;-44
2022/12/18 03:09:18;;;;;;;76.97;27.08;;;;;;;-8.22;100.00;102691.56;5092909;28;20024;-42
2022/12/18 03:14:37;;;;;;;151.82;77.60;;;;;;;-8.25;100.00;102671.13;5092676;28;20548;-43
2022/12/18 03:17:05;;;;;;;75.80;26.08;;;;;;;-8.24;100.00;102677.94;5092698;28;20070;-42
2022/12/18 03:19:32;;;;;;;89.25;26.73;;;;;;;-8.27;100.00;102675.94;5091864;28;20031;-43
2022/12/18 03:22:01;;;;;;;71.85;25.98;;;;;;;-8.31;100.00;102671.22;5092683;28;20024;-43
2022/12/18 03:24:29;;;;;;;85.18;26.92;;;;;;;-8.33;100.00;102670.09;5092642;28;20024;-43
2022/12/18 03:27:00;;;;;;;76.03;25.13;;;;;;;-8.35;100.00;102679.03;5091601;28;20028;-43
2022/12/18 03:29:44;;;;;;;71.20;24.60;;;;;;;-8.37;100.00;102680.41;5092528;28;20447;-46
2022/12/18 03:32:20;;;;;;;76.38;24.88;;;;;;;-8.39;100.00;102685.88;5091793;28;20039;-43
2022/12/18 03:34:48;;;;;;;80.50;24.50;;;;;;;-8.39;100.00;102683.38;5092297;28;20024;-47
2022/12/18 03:37:14;;;;;;;77.90;25.67;;;;;;;-8.45;100.00;102684.38;5092484;28;20017;-42
2022/12/18 03:39:39;;;;;;;122.70;64.03;;;;;;;-8.53;100.00;102671.56;5097060;28;20170;-42
2022/12/18 03:42:13;;;;;;;129.23;66.65;;;;;;;-8.56;100.00;102678.66;5116948;28;20027;-43
2022/12/18 03:44:59;;;;;;;127.95;65.10;;;;;;;-8.47;100.00;102677.38;5116584;28;20028;-43
2022/12/18 03:47:49;;;;;;;67.50;21.23;;;;;;;-8.41;100.00;102673.19;5116026;28;20020;-44
2022/12/18 03:50:25;;;;;;;74.93;23.92;;;;;;;-8.38;100.00;102673.59;5116549;28;20035;-46
2022/12/18 03:53:00;;;;;;;119.68;63.28;;;;;;;-8.43;100.00;102664.56;5116392;28;20032;-42
2022/12/18 03:55:29;;;;;;;128.77;64.35;;;;;;;-8.44;100.00;102655.28;5116585;28;20039;-44
2022/12/18 03:57:56;;;;;;;76.47;25.27;;;;;;;-8.36;100.00;102652.19;5116115;28;20471;-43
2022/12/18 04:00:22;;;;;;;64.85;22.52;;;;;;;-8.35;100.00;102651.50;5115421;28;20763;-43
2022/12/18 04:02:56;;;;;;;63.40;21.45;;;;;;;-8.35;100.00;102644.00;5116134;28;20471;-43
2022/12/18 04:05:24;;;;;;;58.55;20.52;;;;;;;-8.35;100.00;102641.50;5116380;28;20032;-47
2022/12/18 04:07:51;;;;;;;58.63;20.63;;;;;;;-8.35;100.00;102639.00;5115353;28;20032;-42
2022/12/18 04:10:16;;;;;;;77.97;24.05;;;;;;;-8.36;100.00;102632.19;5116394;28;20039;-43
2022/12/18 04:12:42;;;;;;;107.32;58.42;;;;;;;-8.46;100.00;102624.19;5115946;28;20019;-43
2022/12/18 04:15:08;;;;;;;109.32;58.03;;;;;;;-8.48;100.00;102625.56;5115309;28;20043;-44
2022/12/18 04:17:34;;;;;;;55.28;19.45;;;;;;;-8.40;100.00;102624.06;5115610;28;20408;-42
2022/12/18 04:19:59;;;;;;;55.13;20.73;;;;;;;-8.40;100.00;102624.97;5116235;28;20451;-43
2022/12/18 04:22:24;;;;;;;63.85;20.55;;;;;;;-8.38;100.00;102625.19;5115344;28;20015;-44
2022/12/18 04:24:50;;;;;;;59.25;20.83;;;;;;;-8.39;100.00;102613.38;5115682;28;20414;-45
2022/12/18 04:27:15;;;;;;;60.50;22.40;;;;;;;-8.34;100.00;102619.88;5115817;28;20034;-42
2022/12/18 04:29:41;;;;;;;64.53;21.33;;;;;;;-8.36;100.00;102616.31;5114793;28;20023;-43
2022/12/18 04:32:07;;;;;;;93.90;52.88;;;;;;;-8.51;100.00;102612.66;5115951;28;20024;-42
2022/12/18 04:34:32;;;;;;;64.22;22.83;;;;;;;-8.41;100.00;102625.69;5115312;28;20519;-42
2022/12/18 04:36:57;;;;;;;65.90;20.88;;;;;;;-8.41;100.00;102632.28;5114962;28;20024;-43
2022/12/18 04:39:22;;;;;;;95.53;51.90;;;;;;;-8.61;100.00;102633.03;5115880;28;20084;-42
2022/12/18 04:41:48;;;;;;;50.80;17.73;;;;;;;-8.49;100.00;102639.69;5115339;28;20020;-43
2022/12/18 04:44:13;;;;;;;61.80;19.65;;;;;;;-8.51;100.00;102636.06;5114741;28;20031;-45
2022/12/18 04:46:39;;;;;;;52.63;20.00;;;;;;;-8.54;100.00;102635.66;5115072;28;20032;-42
2022/12/18 04:49:04;;;;;;;91.15;51.45;;;;;;;-8.73;100.00;102639.78;5115412;28;20027;-43
2022/12/18 04:51:29;;;;;;;93.38;52.72;;;;;;;-8.62;100.00;102647.13;5114746;28;20030;-43
2022/12/18 04:53:54;;;;;;;51.80;19.52;;;;;;;-8.61;100.00;102648.94;5115312;28;20497;-42
2022/12/18 04:56:20;;;;;;;51.90;18.65;;;;;;;-8.63;100.00;102654.44;5114675;28;20037;-43
2022/12/18 04:58:45;;;;;;;87.57;49.72;;;;;;;-8.77;100.00;102665.06;5114920;28;20028;-44
2022/12/18 05:01:13;;;;;;;89.35;50.20;;;;;;;-8.80;100.00;102669.63;5115009;28;20079;-43
2022/12/18 05:03:39;;;;;;;50.15;17.52;;;;;;;-8.72;100.00;102663.19;5114271;28;20028;-44
2022/12/18 05:06:05;;;;;;;80.22;48.85;;;;;;;-8.85;100.00;102663.13;5115184;28;20422;-42
2022/12/18 05:08:31;;;;;;;50.70;17.35;;;;;;;-8.79;100.00;102666.41;5115008;28;20106;-45
2022/12/18 05:11:04;;;;;;;49.90;18.85;;;;;;;-8.81;100.00;102673.72;5114322;28;20100;-43
2022/12/18 05:13:31;;;;;;;61.55;19.27;;;;;;;-8.81;100.00;102672.84;5114879;28;20024;-42
2022/12/18 05:15:56;;;;;;;49.35;18.65;;;;;;;-8.83;100.00;102674.19;5115060;28;20027;-44
2022/12/18 05:18:23;;;;;;;85.63;48.83;;;;;;;-8.96;100.00;102672.53;5114410;28;20145;-43
2022/12/18 05:20:49;;;;;;;83.15;48.53;;;;;;;-9.02;100.00;102671.69;5114712;28;20039;-42
2022/12/18 05:23:15;;;;;;;48.70;17.80;;;;;;;-8.89;100.00;102665.91;5114839;28;20045;-42
2022/12/18 05:25:40;;;;;;;74.00;45.97;;;;;;;-9.08;100.00;102667.47;5113633;28;20293;-42
2022/12/18 05:28:05;;;;;;;43.03;16.23;;;;;;;-8.96;100.00;102669.13;5114653;28;20024;-43
2022/12/18 05:30:34;;;;;;;80.00;48.05;;;;;;;-9.04;100.00;102658.09;5114781;28;20054;-43
2022/12/18 05:32:59;;;;;;;42.67;16.60;;;;;;;-8.91;100.00;102667.28;5113977;28;20038;-42
2022/12/18 05:35:24;;;;;;;51.95;18.90;;;;;;;-8.89;100.00;102663.41;5114733;28;20028;-42
2022/12/18 05:37:49;;;;;;;48.67;17.10;;;;;;;-8.88;100.00;102662.69;5114238;28;20032;-45
2022/12/18 05:40:15;;;;;;;42.80;15.05;;;;;;;-8.90;100.00;102669.09;5113704;28;20042;-46
2022/12/18 05:42:40;;;;;;;71.57;43.22;;;;;;;-9.12;100.00;102663.63;5114071;28;20032;-47
2022/12/18 05:45:06;;;;;;;41.63;15.77;;;;;;;-8.99;100.00;102666.22;5114304;28;20026;-47
2022/12/18 05:47:31;;;;;;;47.78;15.52;;;;;;;-9.00;100.00;102662.84;5113297;28;20354;-43
2022/12/18 05:49:57;;;;;;;47.45;17.65;;;;;;;-8.99;100.00;102647.13;5114441;28;20028;-42
2022/12/18 05:52:22;;;;;;;75.93;44.92;;;;;;;-9.10;100.00;102638.19;5114369;28;20251;-44
2022/12/18 05:54:48;;;;;;;56.83;19.05;;;;;;;-9.05;100.00;102637.91;5113129;28;20020;-42
2022/12/18 05:57:13;;;;;;;41.28;15.82;;;;;;;-9.05;100.00;102630.41;5114072;28;20057;-42
2022/12/18 05:59:38;;;;;;;76.28;44.80;;;;;;;-9.02;100.00;102628.34;5113195;28;20024;-42
2022/12/18 06:02:03;;;;;;;42.75;16.02;;;;;;;-8.98;100.00;102633.94;5113346;28;20395;-46
2022/12/18 06:04:29;;;;;;;49.60;15.45;;;;;;;-8.90;100.00;102636.59;5114075;28;20031;-43
2022/12/18 06:06:54;;;;;;;77.32;46.92;;;;;;;-8.82;100.00;102636.03;5112703;28;20063;-45
2022/12/18 06:09:19;;;;;;;44.45;16.52;;;;;;;-8.81;100.00;102627.84;5113947;28;20477;-45
2022/12/18 06:11:45;;;;;;;44.65;17.25;;;;;;;-8.77;100.00;102620.06;5113516;28;20463;-45
2022/12/18 06:14:10;;;;;;;48.40;18.55;;;;;;;-8.74;100.00;102625.47;5113328;28;20024;-45
2022/12/18 06:16:35;;;;;;;48.03;17.27;;;;;;;-8.69;100.00;102624.47;5113463;28;20023;-46
2022/12/18 06:19:04;;;;;;;75.53;47.33;;;;;;;-8.63;100.00;102629.44;5113795;28;20411;-46
2022/12/18 06:21:30;;;;;;;74.35;45.70;;;;;;;-8.61;100.00;102626.44;5112997;28;20055;-44
2022/12/18 06:23:56;;;;;;;44.28;17.73;;;;;;;-8.58;100.00;102635.94;5113436;28;20016;-44
2022/12/18 06:26:21;;;;;;;47.67;17.25;;;;;;;-8.56;100.00;102641.16;5113426;28;20034;-42
2022/12/18 06:28:47;;;;;;;46.78;17.98;;;;;;;-8.55;100.00;102640.47;5112713;28;20029;-43
2022/12/18 06:31:12;;;;;;;69.88;43.10;;;;;;;-8.69;100.00;102638.59;5113680;28;20387;-44
2022/12/18 06:33:38;;;;;;;73.55;44.50;;;;;;;-8.74;100.00;102645.47;5113408;28;20046;-44
2022/12/18 06:36:09;;;;;;;40.75;16.85;;;;;;;-8.68;100.00;102632.91;5112792;28;20072;-44
2022/12/18 06:38:36;;;;;;;69.25;43.15;;;;;;;-8.88;100.00;102635.19;5113196;28;20024;-43
2022/12/18 06:41:09;;;;;;;71.78;43.85;;;;;;;-8.95;100.00;102634.38;5113399;28;20023;-44
2022/12/18 06:43:34;;;;;;;37.28;15.40;;;;;;;-8.82;100.00;102626.03;5112579;28;20031;-43
2022/12/18 06:46:00;;;;;;;70.00;43.45;;;;;;;-8.94;100.00;102622.78;5113336;28;20588;-43
2022/12/18 06:48:26;;;;;;;44.53;15.07;;;;;;;-8.85;100.00;102620.63;5113444;28;20035;-42
2022/12/18 06:50:51;;;;;;;41.10;17.10;;;;;;;-8.82;100.00;102616.03;5112210;28;20384;-43
2022/12/18 06:53:16;;;;;;;73.47;45.40;;;;;;;-8.89;100.00;102611.81;5113186;28;20035;-43
2022/12/18 06:55:42;;;;;;;40.28;16.48;;;;;;;-8.80;100.00;102614.66;5112812;28;20134;-43
2022/12/18 06:58:07;;;;;;;50.05;16.60;;;;;;;-8.83;100.00;102612.66;5112694;28;20024;-42
2022/12/18 07:00:33;;;;;;;46.67;16.23;;;;;;;-8.86;100.00;102613.81;5113126;28;20043;-43
2022/12/18 07:02:58;;;;;;;41.53;16.58;;;;;;;-8.90;100.00;102616.63;5112651;28;20048;-44
2022/12/18 07:05:23;;;;;;;47.53;18.38;;;;;;;-8.91;100.00;102617.28;5113203;28;20031;-42
2022/12/18 07:07:48;;;;;;;49.03;19.35;;;;;;;-8.91;100.00;102610.69;5112868;28;20064;-45
2022/12/18 07:10:14;;;;;;;50.88;17.88;;;;;;;-8.87;100.00;102615.44;5112352;28;20111;-44
2022/12/18 07:12:39;;;;;;;80.10;50.38;;;;;;;-8.86;100.00;102601.34;5113159;28;20028;-45
2022/12/18 07:15:05;;;;;;;45.58;18.27;;;;;;;-8.83;100.00;102600.16;5117348;28;20466;-48
2022/12/18 07:17:30;;;;;;;51.63;17.83;;;;;;;-8.80;100.00;102594.66;5116307;28;20028;-42
2022/12/18 07:19:55;;;;;;;50.00;18.52;;;;;;;-8.78;100.00;102593.25;5116973;28;20020;-45
2022/12/18 07:22:21;;;;;;;48.60;18.92;;;;;;;-8.74;100.00;102589.59;5117113;28;20046;-44
2022/12/18 07:24:47;;;;;;;74.70;46.33;;;;;;;-8.74;100.00;102574.59;5115889;28;20127;-43
2022/12/18 07:27:12;;;;;;;52.88;19.70;;;;;;;-8.68;100.00;102566.31;5117079;28;20019;-44
2022/12/18 07:29:37;;;;;;;76.45;48.65;;;;;;;-8.62;100.00;102562.13;5116533;28;20031;-42
2022/12/18 07:32:03;;;;;;;41.67;17.55;;;;;;;-8.58;100.00;102562.53;5116354;28;20028;-44
2022/12/18 07:34:28;;;;;;;78.38;48.47;;;;;;;-8.57;100.00;102554.34;5116982;28;20024;-43
2022/12/18 07:36:53;;;;;;;45.60;18.63;;;;;;;-8.52;100.00;102554.28;5116377;28;20039;-45
2022/12/18 07:39:18;;;;;;;38.10;18.20;;;;;;;-8.47;100.00;102559.88;5115977;28;20107;-43
2022/12/18 07:42:30;;;;;;;78.53;49.88;;;;;;;-8.45;100.00;102548.47;5116822;28;20092;-47
2022/12/18 07:44:29;;;;;;;48.53;17.55;;;;;;;-8.40;100.00;102547.47;5116565;28;20038;-43
2022/12/18 07:46:54;;;;;;;53.03;19.52;;;;;;;-8.35;100.00;102543.97;5115542;28;20032;-42
2022/12/18 07:49:19;;;;;;;78.15;50.00;;;;;;;-8.29;100.00;102539.78;5116757;28;20103;-44
2022/12/18 07:51:48;;;;;;;40.70;18.27;;;;;;;-8.25;100.00;102530.19;5116238;28;20024;-42
2022/12/18 07:54:14;;;;;;;81.07;49.05;;;;;;;-8.23;100.00;102514.66;5115709;28;20524;-43
2022/12/18 07:56:39;;;;;;;46.05;16.83;;;;;;;-8.16;100.00;102512.28;5116336;28;20028;-43
2022/12/18 07:59:04;;;;;;;82.82;50.72;;;;;;;-8.12;100.00;102501.06;5116543;28;20370;-43
2022/12/18 08:01:30;;;;;;;55.38;18.90;;;;;;;-8.06;100.00;102509.38;5115550;28;20050;-42
2022/12/18 08:03:55;;;;;;;47.42;17.98;;;;;;;-8.02;100.00;102521.56;5116123;28;20475;-42
2022/12/18 08:06:20;;;;;;;53.05;19.75;;;;;;;-7.96;100.00;102522.38;5115331;28;20035;-43
2022/12/18 08:08:46;;;;;;;54.40;19.60;;;;;;;-7.89;100.00;102523.19;5116052;28;20467;-47
2022/12/18 08:11:11;;;;;;;47.30;19.13;;;;;;;-7.83;100.00;102524.00;5116336;28;20412;-45
2022/12/18 08:13:36;;;;;;;56.55;20.42;;;;;;;-7.79;100.00;102527.06;5115266;28;20031;-43
2022/12/18 08:16:05;;;;;;;93.55;59.25;;;;;;;-7.74;100.00;102517.66;5116196;28;20070;-46
2022/12/18 08:18:32;;;;;;;76.60;49.15;;;;;;;-7.69;100.00;102520.78;5116092;28;20031;-43
2022/12/18 08:20:57;;;;;;;47.60;18.58;;;;;;;-7.62;100.00;102520.84;5115316;28;20469;-43
2022/12/18 08:23:23;;;;;;;48.03;19.70;;;;;;;-7.58;100.00;102523.03;5115564;28;20051;-44
2022/12/18 08:25:48;;;;;;;60.88;24.02;;;;;;;-7.51;100.00;102538.16;5115654;28;20035;-43
2022/12/18 08:28:13;;;;;;;61.45;21.25;;;;;;;-7.46;100.00;102541.28;5115140;28;20027;-45
2022/12/18 08:30:39;;;;;;;78.28;48.78;;;;;;;-7.42;100.00;102532.53;5115390;28;20027;-43
2022/12/18 08:33:04;;;;;;;81.55;48.13;;;;;;;-7.37;100.00;102534.94;5115687;28;20466;-43
2022/12/18 08:35:30;;;;;;;83.93;51.72;;;;;;;-7.33;100.00;102536.25;5115001;28;20114;-44
2022/12/18 08:37:55;;;;;;;50.08;18.92;;;;;;;-7.28;100.00;102536.09;5115285;28;20033;-43
2022/12/18 08:40:20;;;;;;;57.35;21.02;;;;;;;-7.23;100.00;102528.28;5115860;28;20028;-42
2022/12/18 08:45:29;;;;;;;48.22;18.20;;;;;;;-7.16;100.00;102515.84;5115542;28;20080;-44
2022/12/18 08:47:55;;;;;;;84.47;49.78;;;;;;;-7.15;100.00;102512.63;5115251;28;20057;-42
2022/12/18 08:50:20;;;;;;;51.75;21.52;;;;;;;-7.08;100.00;102510.19;5114691;28;20031;-44
2022/12/18 08:52:45;;;;;;;79.85;49.67;;;;;;;-7.03;100.00;102505.78;5115180;28;20032;-46
2022/12/18 08:55:11;;;;;;;79.05;48.63;;;;;;;-6.97;100.00;102501.50;5115248;28;20072;-45
2022/12/18 08:57:36;;;;;;;49.65;19.23;;;;;;;-6.91;100.00;102499.78;5114265;28;20024;-42
2022/12/18 09:00:02;;;;;;;50.20;19.27;;;;;;;-6.83;100.00;102498.22;5115372;28;20027;-45
2022/12/18 09:02:28;;;;;;;82.22;50.15;;;;;;;-6.79;100.00;102497.91;5114656;28;20050;-43
2022/12/18 09:04:53;;;;;;;45.38;17.88;;;;;;;-6.69;100.00;102500.84;5114801;28;20023;-42
2022/12/18 09:07:18;;;;;;;53.15;21.83;;;;;;;-6.63;100.00;102499.13;5115319;28;20102;-41
2022/12/18 09:09:43;;;;;;;77.40;46.47;;;;;;;-6.55;100.00;102501.69;5114119;28;20028;-43
2022/12/18 09:12:09;;;;;;;76.03;48.10;;;;;;;-6.50;100.00;102511.59;5115207;28;20026;-48
2022/12/18 09:14:35;;;;;;;63.55;20.38;;;;;;;-6.41;100.00;102514.34;5114718;28;20023;-42
2022/12/18 09:17:00;;;;;;;81.75;49.55;;;;;;;-6.37;100.00;102503.97;5114185;28;20023;-42
2022/12/18 09:19:25;;;;;;;50.90;20.02;;;;;;;-6.29;100.00;102514.97;5114819;28;20023;-43
2022/12/18 09:21:51;;;;;;;68.90;20.52;;;;;;;-6.22;100.00;102524.16;5114676;28;20024;-44
2022/12/18 09:24:16;;;;;;;77.10;49.45;;;;;;;-6.18;100.00;102539.78;5114240;28;20058;-43
2022/12/18 09:26:42;;;;;;;49.65;19.55;;;;;;;-6.09;100.00;102541.63;5114249;28;20462;-44
2022/12/18 09:29:08;;;;;;;77.28;47.10;;;;;;;-6.08;100.00;102533.38;5114754;28;20058;-44
2022/12/18 09:31:35;;;;;;;164.38;50.00;;;;;;;-6.00;100.00;102523.59;5113709;28;20023;-43
2022/12/18 09:34:00;;;;;;;77.20;45.40;;;;;;;-5.97;100.00;102523.91;5114511;28;20028;-45
2022/12/18 09:36:25;;;;;;;79.53;47.35;;;;;;;-5.93;100.00;102519.28;5113816;28;20026;-46
2022/12/18 09:38:51;;;;;;;78.53;47.35;;;;;;;-5.88;100.00;102513.22;5113591;28;20024;-44
2022/12/18 09:41:35;;;;;;;72.82;46.08;;;;;;;-5.82;100.00;102508.94;5114499;28;20477;-46
2022/12/18 09:44:17;;;;;;;63.80;20.48;;;;;;;-5.71;100.00;102496.06;5114480;28;20098;-43
2022/12/18 09:46:47;;;;;;;52.10;19.30;;;;;;;-5.65;100.00;102488.38;5113450;28;20059;-45
2022/12/18 09:49:16;;;;;;;78.43;47.20;;;;;;;-5.67;100.00;102485.69;5114429;28;20027;-44
2022/12/18 09:52:23;;;;;;;79.55;47.45;;;;;;;-5.57;100.00;102481.78;5113245;28;20024;-42
2022/12/18 09:55:00;;;;;;;;;;;;;;;-5.49;100.00;102478.56;5114238;28;20028;-45
2022/12/18 09:57:25;;;;;;;83.90;50.80;;;;;;;-5.50;100.00;102464.19;5114341;28;19973;-42
2022/12/18 10:00:06;;;;;;;77.80;46.78;;;;;;;-5.43;100.00;102466.75;5113002;28;20028;-42
2022/12/18 10:02:32;;;;;;;82.80;47.88;;;;;;;-5.39;100.00;102465.50;5113789;28;20035;-42
2022/12/18 10:05:05;;;;;;;56.28;21.58;;;;;;;-5.28;100.00;102477.75;5113990;28;20363;-41
2022/12/18 10:07:45;;;;;;;81.72;48.95;;;;;;;-5.18;100.00;102484.75;5113351;28;20028;-42
2022/12/18 10:10:26;;;;;;;79.75;49.33;;;;;;;-5.08;100.00;102490.16;5113889;28;20467;-45
2022/12/18 10:13:15;;;;;;;55.03;19.88;;;;;;;-5.00;100.00;102484.41;5112857;28;20084;-43
2022/12/18 10:15:55;;;;;;;82.20;48.13;;;;;;;-5.01;100.00;102476.69;5113456;28;20412;-44
2022/12/18 10:18:39;;;;;;;81.50;46.67;;;;;;;-4.98;100.00;102474.56;5113952;28;20027;-45
2022/12/18 10:21:13;;;;;;;90.60;52.08;;;;;;;-4.90;100.00;102475.44;5113011;28;20039;-46
2022/12/18 10:23:52;;;;;;;87.07;49.88;;;;;;;-4.87;100.00;102481.72;5113626;28;20091;-45
2022/12/18 10:26:18;;;;;;;85.72;50.22;;;;;;;-4.83;100.00;102476.34;5113795;28;20111;-43
2022/12/18 10:28:44;;;;;;;57.42;17.90;;;;;;;-4.73;100.00;102467.38;5112515;28;20534;-44
2022/12/18 10:31:20;;;;;;;67.43;25.13;;;;;;;-4.71;100.00;102459.28;5113533;28;20102;-44
2022/12/18 10:33:45;;;;;;;56.70;20.27;;;;;;;-4.65;100.00;102451.53;5113279;28;20028;-45
2022/12/18 10:36:11;;;;;;;84.28;47.50;;;;;;;-4.69;100.00;102457.81;5112659;28;20463;-45
2022/12/18 10:38:36;;;;;;;66.38;24.05;;;;;;;-4.60;100.00;102449.56;5112981;28;20439;-46
2022/12/18 10:41:03;;;;;;;88.68;51.95;;;;;;;-4.54;100.00;102441.09;5112878;28;20030;-42
2022/12/18 10:43:33;;;;;;;82.80;47.03;;;;;;;-4.51;100.00;102430.50;5113565;28;20023;-43
2022/12/18 10:46:08;;;;;;;88.15;49.33;;;;;;;-4.47;100.00;102417.53;5113480;28;20038;-47
2022/12/18 10:48:55;;;;;;;84.20;48.13;;;;;;;-4.38;100.00;102417.72;5112115;28;20375;-43
2022/12/18 10:51:27;;;;;;;84.28;49.25;;;;;;;-4.34;100.00;102425.81;5113254;28;20019;-43
2022/12/18 10:54:13;;;;;;;82.82;50.53;;;;;;;-4.25;100.00;102420.91;5112881;28;20516;-42
2022/12/18 10:56:39;;;;;;;58.27;19.30;;;;;;;-4.18;100.00;102408.31;5112263;28;20035;-46
2022/12/18 10:59:07;;;;;;;84.72;50.00;;;;;;;-4.21;100.00;102402.94;5113178;28;20736;-43
2022/12/18 11:01:56;;;;;;;87.65;48.92;;;;;;;-4.15;100.00;102397.69;5112582;28;20044;-43
2022/12/18 11:04:25;;;;;;;88.93;50.28;;;;;;;-4.16;100.00;102396.78;5112554;28;20024;-43
2022/12/18 11:07:05;;;;;;;86.20;50.00;;;;;;;-4.11;100.00;102387.22;5112759;28;20153;-43
2022/12/18 11:09:35;;;;;;;87.90;50.85;;;;;;;-4.05;100.00;102397.13;5112212;28;20110;-44
2022/12/18 11:12:14;;;;;;;88.03;50.70;;;;;;;-4.02;100.00;102400.84;5113359;28;20110;-46
2022/12/18 11:14:47;;;;;;;68.03;23.80;;;;;;;-3.93;100.00;102406.03;5112996;28;20031;-46